createdAt,value
2016-07-09T00:00:20.388Z,15.98
2016-07-09T00:01:20.595Z,15.96
2016-07-09T00:02:20.601Z,15.99
2016-07-09T00:03:20.370Z,16.04
2016-07-09T00:04:20.656Z,16.04
2016-07-09T00:05:20.565Z,16.02
2016-07-09T00:06:20.650Z,16.07
2016-07-09T00:07:20.638Z,15.99
2016-07-09T00:08:20.660Z,16.02
2016-07-09T00:09:20.634Z,15.93
2016-07-09T00:10:20.383Z,16.02
2016-07-09T00:11:20.377Z,16
2016-07-09T00:12:20.371Z,16
2016-07-09T00:13:20.353Z,16.02
2016-07-09T00:14:20.634Z,15.99
2016-07-09T00:15:20.654Z,15.98
2016-07-09T00:16:20.595Z,15.81
2016-07-09T00:17:20.590Z,15.84
2016-07-09T00:18:20.495Z,15.77
2016-07-09T00:19:20.627Z,15.74
2016-07-09T00:20:20.659Z,15.6
2016-07-09T00:21:20.451Z,15.58
2016-07-09T00:22:20.643Z,15.49
2016-07-09T00:23:20.570Z,15.51
2016-07-09T00:24:20.542Z,15.41
2016-07-09T00:25:20.633Z,15.47
2016-07-09T00:26:20.575Z,15.37
2016-07-09T00:27:20.331Z,15.41
2016-07-09T00:28:20.634Z,15.38
2016-07-09T00:29:20.542Z,15.4
2016-07-09T00:30:20.481Z,15.41
2016-07-09T00:31:20.284Z,15.4
2016-07-09T00:32:20.517Z,15.35
2016-07-09T00:33:20.507Z,15.3
2016-07-09T00:34:20.496Z,15.34
2016-07-09T00:35:20.488Z,15.41
2016-07-09T00:36:20.435Z,15.33
2016-07-09T00:37:20.312Z,15.4
2016-07-09T00:38:20.355Z,15.33
2016-07-09T00:39:20.608Z,15.3
2016-07-09T00:40:20.461Z,15.22
2016-07-09T00:41:20.568Z,15.31
2016-07-09T00:42:20.563Z,15.34
2016-07-09T00:43:20.528Z,15.4
2016-07-09T00:44:20.466Z,15.37
2016-07-09T00:45:20.350Z,15.4
2016-07-09T00:46:20.570Z,15.41
2016-07-09T00:47:20.524Z,15.51
2016-07-09T00:48:20.291Z,15.53
2016-07-09T00:49:20.474Z,15.63
2016-07-09T00:50:20.490Z,15.62
2016-07-09T00:51:20.532Z,15.74
2016-07-09T00:52:20.533Z,15.71
2016-07-09T00:53:20.251Z,15.73
2016-07-09T00:54:20.501Z,15.75
2016-07-09T00:55:20.254Z,15.74
2016-07-09T00:56:20.518Z,15.81
2016-07-09T00:57:20.224Z,15.91
2016-07-09T00:58:20.403Z,15.83
2016-07-09T00:59:20.554Z,15.93
2016-07-09T01:00:20.469Z,15.93
2016-07-09T01:01:20.398Z,15.96
2016-07-09T01:02:20.410Z,15.96
2016-07-09T01:03:20.484Z,16.02
2016-07-09T01:04:20.420Z,16.04
2016-07-09T01:05:20.434Z,16.06
2016-07-09T01:06:20.205Z,16.08
2016-07-09T01:07:20.189Z,16.02
2016-07-09T01:08:20.306Z,16.04
2016-07-09T01:09:20.532Z,16.07
2016-07-09T01:10:20.538Z,15.95
2016-07-09T01:11:20.479Z,16.02
2016-07-09T01:12:20.466Z,16.06
2016-07-09T01:13:20.485Z,16.07
2016-07-09T01:14:20.316Z,16.08
2016-07-09T01:15:20.225Z,16.04
2016-07-09T01:16:20.214Z,16.08
2016-07-09T01:17:20.231Z,16.07
2016-07-09T01:18:20.382Z,16.02
2016-07-09T01:19:20.499Z,16.04
2016-07-09T01:20:20.178Z,16.04
2016-07-09T01:21:20.465Z,15.99
2016-07-09T01:22:20.463Z,16.04
2016-07-09T01:23:20.507Z,16.02
2016-07-09T01:24:20.442Z,15.99
2016-07-09T01:25:20.379Z,16.02
2016-07-09T01:26:20.441Z,15.99
2016-07-09T01:27:20.237Z,15.93
2016-07-09T01:28:20.392Z,15.98
2016-07-09T01:29:20.248Z,15.96
2016-07-09T01:30:20.239Z,15.96
2016-07-09T01:31:20.213Z,15.96
2016-07-09T01:32:20.365Z,15.95
2016-07-09T01:33:20.199Z,15.99
2016-07-09T01:34:20.146Z,15.99
2016-07-09T01:35:20.465Z,15.99
2016-07-09T01:36:20.542Z,15.99
2016-07-09T01:37:20.356Z,15.92
2016-07-09T01:38:20.333Z,15.99
2016-07-09T01:39:20.388Z,15.93
2016-07-09T01:40:20.224Z,15.88
2016-07-09T01:41:20.132Z,15.88
2016-07-09T01:42:20.212Z,15.8
2016-07-09T01:43:20.077Z,15.73
2016-07-09T01:44:20.376Z,15.59
2016-07-09T01:45:20.077Z,15.59
2016-07-09T01:46:20.131Z,15.52
2016-07-09T01:47:20.071Z,15.44
2016-07-09T01:48:20.171Z,15.37
2016-07-09T01:49:20.405Z,15.34
2016-07-09T01:50:20.238Z,15.4
2016-07-09T01:51:20.114Z,15.3
2016-07-09T01:52:20.077Z,15.2
2016-07-09T01:53:20.345Z,15.25
2016-07-09T01:54:20.125Z,15.25
2016-07-09T01:55:20.370Z,15.12
2016-07-09T01:56:20.320Z,15.12
2016-07-09T01:57:20.361Z,15.05
2016-07-09T01:58:20.080Z,15.02
2016-07-09T01:59:20.623Z,14.95
2016-07-09T02:00:20.171Z,14.82
2016-07-09T02:01:20.357Z,14.85
2016-07-09T02:02:20.280Z,14.71
2016-07-09T02:03:20.357Z,14.66
2016-07-09T02:04:20.156Z,14.63
2016-07-09T02:05:20.359Z,14.49
2016-07-09T02:06:20.357Z,14.46
2016-07-09T02:07:20.245Z,14.45
2016-07-09T02:08:20.041Z,14.42
2016-07-09T02:09:20.372Z,14.34
2016-07-09T02:10:20.056Z,14.36
2016-07-09T02:11:20.358Z,14.31
2016-07-09T02:12:20.242Z,14.23
2016-07-09T02:13:20.832Z,14.16
2016-07-09T02:14:20.667Z,14.15
2016-07-09T02:15:20.096Z,14.08
2016-07-09T02:16:20.327Z,13.99
2016-07-09T02:17:19.971Z,13.97
2016-07-09T02:18:20.050Z,13.97
2016-07-09T02:19:20.099Z,13.93
2016-07-09T02:20:20.182Z,13.91
2016-07-09T02:21:20.350Z,13.86
2016-07-09T02:22:20.335Z,13.86
2016-07-09T02:23:20.268Z,13.88
2016-07-09T02:24:20.100Z,13.91
2016-07-09T02:25:20.281Z,14.01
2016-07-09T02:26:20.265Z,13.99
2016-07-09T02:27:20.263Z,13.94
2016-07-09T02:28:19.968Z,14.02
2016-07-09T02:29:19.998Z,14.05
2016-07-09T02:30:20.308Z,14.09
2016-07-09T02:31:19.946Z,14.2
2016-07-09T02:32:20.118Z,14.24
2016-07-09T02:33:20.126Z,14.28
2016-07-09T02:34:19.930Z,14.28
2016-07-09T02:35:20.137Z,14.28
2016-07-09T02:36:20.186Z,14.21
2016-07-09T02:37:20.192Z,14.24
2016-07-09T02:38:20.276Z,14.21
2016-07-09T02:39:19.977Z,14.09
2016-07-09T02:40:20.148Z,14.19
2016-07-09T02:41:20.146Z,14.06
2016-07-09T02:42:19.903Z,14.11
2016-07-09T02:43:19.908Z,14.02
2016-07-09T02:44:20.191Z,13.97
2016-07-09T02:45:20.078Z,14.01
2016-07-09T02:46:19.929Z,14.02
2016-07-09T02:47:20.137Z,13.99
2016-07-09T02:48:20.090Z,14.05
2016-07-09T02:49:19.859Z,14.12
2016-07-09T02:50:20.082Z,14.02
2016-07-09T02:51:20.014Z,14.11
2016-07-09T02:52:20.150Z,14.05
2016-07-09T02:53:20.114Z,14.05
2016-07-09T02:54:19.890Z,14.06
2016-07-09T02:55:20.105Z,14.06
2016-07-09T02:56:19.852Z,14.03
2016-07-09T02:57:20.083Z,14.02
2016-07-09T02:58:20.053Z,14.06
2016-07-09T02:59:20.093Z,14.06
2016-07-09T03:00:19.801Z,14.06
2016-07-09T03:01:19.807Z,14.03
2016-07-09T03:02:20.017Z,14.08
2016-07-09T03:03:20.093Z,14.05
2016-07-09T03:04:19.955Z,14.05
2016-07-09T03:05:20.014Z,14.03
2016-07-09T03:06:19.817Z,14.03
2016-07-09T03:07:20.036Z,14.05
2016-07-09T03:08:20.014Z,14.09
2016-07-09T03:09:20.116Z,14.21
2016-07-09T03:10:20.082Z,14.2
2016-07-09T03:11:20.093Z,14.3
2016-07-09T03:12:20.096Z,14.3
2016-07-09T03:13:20.080Z,14.28
2016-07-09T03:14:19.961Z,14.34
2016-07-09T03:15:19.798Z,14.34
2016-07-09T03:16:19.723Z,14.36
2016-07-09T03:17:19.963Z,14.31
2016-07-09T03:18:20.048Z,14.41
2016-07-09T03:19:19.731Z,14.33
2016-07-09T03:20:20.010Z,14.3
2016-07-09T03:21:20.031Z,14.31
2016-07-09T03:22:19.845Z,14.3
2016-07-09T03:23:20.002Z,14.26
2016-07-09T03:24:19.701Z,14.27
2016-07-09T03:25:19.747Z,14.09
2016-07-09T03:26:19.748Z,14.16
2016-07-09T03:27:19.752Z,14.06
2016-07-09T03:28:20.015Z,14.03
2016-07-09T03:29:20.034Z,13.99
2016-07-09T03:30:19.915Z,13.99
2016-07-09T03:31:19.841Z,13.87
2016-07-09T03:32:19.922Z,13.81
2016-07-09T03:33:19.827Z,13.72
2016-07-09T03:34:19.713Z,13.7
2016-07-09T03:35:19.706Z,13.63
2016-07-09T03:36:19.714Z,13.58
2016-07-09T03:37:19.701Z,13.53
2016-07-09T03:38:19.767Z,13.58
2016-07-09T03:39:19.671Z,13.62
2016-07-09T03:40:19.667Z,13.48
2016-07-09T03:41:19.788Z,13.45
2016-07-09T03:42:19.655Z,13.42
2016-07-09T03:43:19.645Z,13.42
2016-07-09T03:44:19.921Z,13.45
2016-07-09T03:45:19.666Z,13.47
2016-07-09T03:46:19.650Z,13.44
2016-07-09T03:47:19.629Z,13.4
2016-07-09T03:48:19.633Z,13.48
2016-07-09T03:49:19.866Z,13.47
2016-07-09T03:50:19.761Z,13.4
2016-07-09T03:51:19.613Z,13.4
2016-07-09T03:52:19.637Z,13.45
2016-07-09T03:53:19.871Z,13.4
2016-07-09T03:54:19.888Z,13.47
2016-07-09T03:55:19.911Z,13.53
2016-07-09T03:56:19.844Z,13.47
2016-07-09T03:57:19.816Z,13.48
2016-07-09T03:58:19.873Z,13.48
2016-07-09T03:59:19.748Z,13.55
2016-07-09T04:00:19.759Z,13.45
2016-07-09T04:01:19.547Z,13.45
2016-07-09T04:02:19.837Z,13.54
2016-07-09T04:03:19.563Z,13.5
2016-07-09T04:04:20.258Z,13.5
2016-07-09T04:05:19.585Z,13.54
2016-07-09T04:06:19.914Z,13.45
2016-07-09T04:07:19.769Z,13.45
2016-07-09T04:08:19.846Z,13.47
2016-07-09T04:09:19.846Z,13.48
2016-07-09T04:10:19.860Z,13.45
2016-07-09T04:11:19.810Z,13.47
2016-07-09T04:12:19.565Z,13.45
2016-07-09T04:13:19.837Z,13.48
2016-07-09T04:14:19.843Z,13.48
2016-07-09T04:15:19.744Z,13.47
2016-07-09T04:16:19.531Z,13.5
2016-07-09T04:17:19.523Z,13.5
2016-07-09T04:18:19.501Z,13.54
2016-07-09T04:19:19.693Z,13.58
2016-07-09T04:20:19.726Z,13.5
2016-07-09T04:21:19.755Z,13.55
2016-07-09T04:22:19.717Z,13.55
2016-07-09T04:23:19.488Z,13.53
2016-07-09T04:24:19.482Z,13.54
2016-07-09T04:25:19.454Z,13.55
2016-07-09T04:26:19.736Z,13.62
2016-07-09T04:27:19.440Z,13.68
2016-07-09T04:28:19.666Z,13.66
2016-07-09T04:29:19.673Z,13.68
2016-07-09T04:30:19.453Z,13.68
2016-07-09T04:31:19.600Z,13.69
2016-07-09T04:32:19.465Z,13.73
2016-07-09T04:33:19.735Z,13.81
2016-07-09T04:34:19.716Z,13.83
2016-07-09T04:35:19.437Z,13.79
2016-07-09T04:36:19.657Z,13.88
2016-07-09T04:37:19.741Z,13.88
2016-07-09T04:38:19.632Z,13.91
2016-07-09T04:39:19.642Z,14.01
2016-07-09T04:40:19.719Z,13.91
2016-07-09T04:41:19.716Z,14.03
2016-07-09T04:42:19.648Z,14.12
2016-07-09T04:43:19.709Z,14.12
2016-07-09T04:44:19.706Z,14.19
2016-07-09T04:45:19.583Z,14.09
2016-07-09T04:46:19.439Z,14.09
2016-07-09T04:47:19.385Z,14.24
2016-07-09T04:48:19.650Z,14.33
2016-07-09T04:49:19.574Z,14.34
2016-07-09T04:50:19.513Z,14.31
2016-07-09T04:51:19.480Z,14.31
2016-07-09T04:52:19.530Z,14.51
2016-07-09T04:53:19.691Z,14.48
2016-07-09T04:54:19.573Z,14.48
2016-07-09T04:55:19.630Z,14.51
2016-07-09T04:56:19.523Z,14.6
2016-07-09T04:57:19.502Z,14.66
2016-07-09T04:58:19.514Z,14.69
2016-07-09T04:59:19.436Z,14.71
2016-07-09T05:00:19.590Z,14.74
2016-07-09T05:01:19.503Z,14.75
2016-07-09T05:02:19.292Z,14.79
2016-07-09T05:03:19.309Z,14.82
2016-07-09T05:04:19.313Z,14.86
2016-07-09T05:05:19.547Z,14.95
2016-07-09T05:06:19.312Z,15.01
2016-07-09T05:07:19.927Z,15.18
2016-07-09T05:08:19.478Z,15.34
2016-07-09T05:09:19.501Z,15.4
2016-07-09T05:10:19.343Z,15.58
2016-07-09T05:11:19.635Z,15.75
2016-07-09T05:12:19.290Z,15.89
2016-07-09T05:13:19.576Z,15.98
2016-07-09T05:14:19.478Z,16.04
2016-07-09T05:15:19.558Z,16.16
2016-07-09T05:16:19.460Z,16.29
2016-07-09T05:17:19.547Z,16.34
2016-07-09T05:18:19.557Z,16.27
2016-07-09T05:19:19.514Z,16.42
2016-07-09T05:20:19.530Z,16.3
2016-07-09T05:21:19.479Z,16.37
2016-07-09T05:22:19.375Z,16.42
2016-07-09T05:23:19.541Z,16.39
2016-07-09T05:24:19.378Z,16.33
2016-07-09T05:25:19.418Z,16.33
2016-07-09T05:26:19.437Z,16.36
2016-07-09T05:27:19.520Z,16.37
2016-07-09T05:28:19.485Z,16.4
2016-07-09T05:29:19.491Z,16.32
2016-07-09T05:30:19.382Z,16.33
2016-07-09T05:31:19.198Z,16.33
2016-07-09T05:32:19.208Z,16.4
2016-07-09T05:33:19.449Z,16.44
2016-07-09T05:34:19.481Z,16.36
2016-07-09T05:35:19.408Z,16.39
2016-07-09T05:36:19.463Z,16.36
2016-07-09T05:37:19.454Z,16.4
2016-07-09T05:38:19.481Z,16.45
2016-07-09T05:39:19.194Z,16.44
2016-07-09T05:40:19.243Z,16.34
2016-07-09T05:41:19.424Z,16.3
2016-07-09T05:42:19.207Z,16.32
2016-07-09T05:43:19.422Z,16.18
2016-07-09T05:44:19.190Z,16.25
2016-07-09T05:45:19.180Z,16.25
2016-07-09T05:46:19.272Z,16.29
2016-07-09T05:47:19.509Z,16.32
2016-07-09T05:48:19.158Z,16.34
2016-07-09T05:49:19.357Z,16.37
2016-07-09T05:50:19.445Z,16.39
2016-07-09T05:51:19.157Z,16.51
2016-07-09T05:52:19.284Z,16.51
2016-07-09T05:53:19.441Z,16.55
2016-07-09T05:54:19.223Z,16.63
2016-07-09T05:55:19.150Z,16.69
2016-07-09T05:56:19.142Z,16.65
2016-07-09T05:57:19.141Z,16.66
2016-07-09T05:58:19.407Z,16.59
2016-07-09T05:59:19.340Z,16.55
2016-07-09T06:00:19.313Z,16.58
2016-07-09T06:01:19.347Z,16.69
2016-07-09T06:02:19.109Z,16.73
2016-07-09T06:03:19.307Z,16.76
2016-07-09T06:04:19.433Z,16.82
2016-07-09T06:05:19.406Z,16.94
2016-07-09T06:06:19.459Z,16.95
2016-07-09T06:07:19.083Z,17.02
2016-07-09T06:08:19.094Z,16.99
2016-07-09T06:09:19.282Z,16.95
2016-07-09T06:10:19.076Z,16.85
2016-07-09T06:11:19.295Z,16.81
2016-07-09T06:12:19.241Z,16.85
2016-07-09T06:13:19.323Z,16.87
2016-07-09T06:14:19.379Z,16.94
2016-07-09T06:15:19.099Z,17.02
2016-07-09T06:16:19.104Z,17
2016-07-09T06:17:19.380Z,17.2
2016-07-09T06:18:19.385Z,17.3
2016-07-09T06:19:19.269Z,17.52
2016-07-09T06:20:19.056Z,17.57
2016-07-09T06:21:19.335Z,17.68
2016-07-09T06:22:19.291Z,17.9
2016-07-09T06:23:19.083Z,17.94
2016-07-09T06:24:19.354Z,18.11
2016-07-09T06:25:19.076Z,18.1
2016-07-09T06:26:19.175Z,18.19
2016-07-09T06:27:19.095Z,18.16
2016-07-09T06:28:19.250Z,18.14
2016-07-09T06:29:19.100Z,18.13
2016-07-09T06:30:19.126Z,18.21
2016-07-09T06:31:19.074Z,18.32
2016-07-09T06:32:19.110Z,18.34
2016-07-09T06:33:19.096Z,18.39
2016-07-09T06:34:19.332Z,18.36
2016-07-09T06:35:19.127Z,18.45
2016-07-09T06:36:19.305Z,18.42
2016-07-09T06:37:19.224Z,18.39
2016-07-09T06:38:19.018Z,18.54
2016-07-09T06:39:19.303Z,18.53
2016-07-09T06:40:19.160Z,18.51
2016-07-09T06:41:19.062Z,18.54
2016-07-09T06:42:19.031Z,18.6
2016-07-09T06:43:19.057Z,18.68
2016-07-09T06:44:19.856Z,18.66
2016-07-09T06:45:19.226Z,18.76
2016-07-09T06:46:19.093Z,18.78
2016-07-09T06:47:19.235Z,18.74
2016-07-09T06:48:19.313Z,18.68
2016-07-09T06:49:19.302Z,18.74
2016-07-09T06:50:19.316Z,18.74
2016-07-09T06:51:19.035Z,18.81
2016-07-09T06:52:19.046Z,18.75
2016-07-09T06:53:19.023Z,18.78
2016-07-09T06:54:19.367Z,18.89
2016-07-09T06:55:19.313Z,18.93
2016-07-09T06:56:19.036Z,18.94
2016-07-09T06:57:19.326Z,18.9
2016-07-09T06:58:19.252Z,18.89
2016-07-09T06:59:19.040Z,18.94
2016-07-09T07:00:19.141Z,18.87
2016-07-09T07:01:19.357Z,18.78
2016-07-09T07:02:19.331Z,18.71
2016-07-09T07:03:19.274Z,18.65
2016-07-09T07:04:19.025Z,18.74
2016-07-09T07:05:19.252Z,18.66
2016-07-09T07:06:19.000Z,18.65
2016-07-09T07:07:18.987Z,18.63
2016-07-09T07:08:19.278Z,18.78
2016-07-09T07:09:18.986Z,18.93
2016-07-09T07:10:19.278Z,18.87
2016-07-09T07:11:19.209Z,18.97
2016-07-09T07:12:19.285Z,18.99
2016-07-09T07:13:20.465Z,19.12
2016-07-09T07:14:19.295Z,19.12
2016-07-09T07:15:19.012Z,19.2
2016-07-09T07:16:19.216Z,19.13
2016-07-09T07:17:19.007Z,19.06
2016-07-09T07:18:18.996Z,18.97
2016-07-09T07:19:19.085Z,18.91
2016-07-09T07:20:19.200Z,18.89
2016-07-09T07:21:19.103Z,18.94
2016-07-09T07:22:19.304Z,18.93
2016-07-09T07:23:18.991Z,18.78
2016-07-09T07:24:18.981Z,18.86
2016-07-09T07:25:19.217Z,18.76
2016-07-09T07:26:19.225Z,18.61
2016-07-09T07:27:19.129Z,18.56
2016-07-09T07:28:19.197Z,18.5
2016-07-09T07:29:19.004Z,18.42
2016-07-09T07:30:19.000Z,18.26
2016-07-09T07:31:19.193Z,18.32
2016-07-09T07:32:19.276Z,18.21
2016-07-09T07:33:19.178Z,18.19
2016-07-09T07:34:19.228Z,18.14
2016-07-09T07:35:19.195Z,18.03
2016-07-09T07:36:19.270Z,18.03
2016-07-09T07:37:19.075Z,18.03
2016-07-09T07:38:19.189Z,17.94
2016-07-09T07:39:19.197Z,17.9
2016-07-09T07:40:19.089Z,17.86
2016-07-09T07:41:18.984Z,17.86
2016-07-09T07:42:19.123Z,17.83
2016-07-09T07:43:19.209Z,17.77
2016-07-09T07:44:19.179Z,17.81
2016-07-09T07:45:19.296Z,17.81
2016-07-09T07:46:19.337Z,17.88
2016-07-09T07:47:19.207Z,18.01
2016-07-09T07:48:19.091Z,18.11
2016-07-09T07:49:19.270Z,18.24
2016-07-09T07:50:18.983Z,18.23
2016-07-09T07:51:19.045Z,18.31
2016-07-09T07:52:19.259Z,18.39
2016-07-09T07:53:18.979Z,18.5
2016-07-09T07:54:19.275Z,18.53
2016-07-09T07:55:19.274Z,18.66
2016-07-09T07:56:19.157Z,18.65
2016-07-09T07:57:18.936Z,18.69
2016-07-09T07:58:19.154Z,18.74
2016-07-09T07:59:19.204Z,18.72
2016-07-09T08:00:18.967Z,18.61
2016-07-09T08:01:18.957Z,18.65
2016-07-09T08:02:18.965Z,18.65
2016-07-09T08:03:18.972Z,18.81
2016-07-09T08:04:18.966Z,18.93
2016-07-09T08:05:19.072Z,19.02
2016-07-09T08:06:19.071Z,19.15
2016-07-09T08:07:19.045Z,19.25
2016-07-09T08:08:19.009Z,19.32
2016-07-09T08:09:19.245Z,19.43
2016-07-09T08:10:19.169Z,19.52
2016-07-09T08:11:19.246Z,19.64
2016-07-09T08:12:18.989Z,19.67
2016-07-09T08:13:18.961Z,19.92
2016-07-09T08:14:19.237Z,20.08
2016-07-09T08:15:18.951Z,20.12
2016-07-09T08:16:19.252Z,20.26
2016-07-09T08:17:19.210Z,20.25
2016-07-09T08:18:19.131Z,20.38
2016-07-09T08:19:19.037Z,20.37
2016-07-09T08:20:19.066Z,20.42
2016-07-09T08:21:18.960Z,20.41
2016-07-09T08:22:19.126Z,20.3
2016-07-09T08:23:19.144Z,20.46
2016-07-09T08:24:19.197Z,20.53
2016-07-09T08:25:19.273Z,20.57
2016-07-09T08:26:19.239Z,20.51
2016-07-09T08:27:19.041Z,20.37
2016-07-09T08:28:19.120Z,20.49
2016-07-09T08:29:19.858Z,20.41
2016-07-09T08:30:19.656Z,20.35
2016-07-09T08:31:20.491Z,20.44
2016-07-09T08:32:20.627Z,20.38
2016-07-09T08:33:18.929Z,20.4
2016-07-09T08:34:19.139Z,20.26
2016-07-09T08:35:18.953Z,20.4
2016-07-09T08:36:18.925Z,20.54
2016-07-09T08:37:19.143Z,20.63
2016-07-09T08:38:19.148Z,20.63
2016-07-09T08:39:18.957Z,20.6
2016-07-09T08:40:19.016Z,20.51
2016-07-09T08:41:19.159Z,20.53
2016-07-09T08:42:18.957Z,20.66
2016-07-09T08:43:18.947Z,20.76
2016-07-09T08:44:18.974Z,20.86
2016-07-09T08:45:19.264Z,21.01
2016-07-09T08:46:19.015Z,21.04
2016-07-09T08:47:19.237Z,20.86
2016-07-09T08:48:19.164Z,20.83
2016-07-09T08:49:18.973Z,20.78
2016-07-09T08:50:19.069Z,20.85
2016-07-09T08:51:19.164Z,20.78
2016-07-09T08:52:19.160Z,20.86
2016-07-09T08:53:18.949Z,20.82
2016-07-09T08:54:19.222Z,20.83
2016-07-09T08:55:19.233Z,20.81
2016-07-09T08:56:18.958Z,20.85
2016-07-09T08:57:18.982Z,21
2016-07-09T08:58:18.958Z,20.97
2016-07-09T08:59:19.088Z,21.15
2016-07-09T09:00:19.267Z,21.27
2016-07-09T09:01:19.275Z,21.33
2016-07-09T09:02:18.975Z,21.56
2016-07-09T09:03:19.294Z,21.68
2016-07-09T09:04:19.198Z,21.71
2016-07-09T09:05:19.257Z,21.78
2016-07-09T09:06:19.169Z,21.78
2016-07-09T09:07:19.240Z,21.86
2016-07-09T09:08:19.179Z,21.7
2016-07-09T09:09:19.214Z,21.55
2016-07-09T09:10:18.986Z,21.4
2016-07-09T09:11:19.213Z,21.46
2016-07-09T09:12:19.206Z,21.3
2016-07-09T09:13:19.049Z,21.25
2016-07-09T09:14:19.235Z,21.25
2016-07-09T09:15:19.065Z,21.3
2016-07-09T09:16:19.183Z,21.31
2016-07-09T09:17:19.277Z,21.46
2016-07-09T09:18:19.213Z,21.59
2016-07-09T09:19:19.209Z,21.61
2016-07-09T09:20:19.301Z,21.77
2016-07-09T09:21:19.273Z,21.74
2016-07-09T09:22:19.263Z,21.82
2016-07-09T09:23:19.122Z,21.96
2016-07-09T09:24:19.168Z,21.9
2016-07-09T09:25:18.974Z,21.96
2016-07-09T09:26:18.983Z,21.93
2016-07-09T09:27:19.214Z,21.96
2016-07-09T09:28:19.218Z,22.14
2016-07-09T09:29:19.098Z,22.16
2016-07-09T09:30:19.239Z,22.24
2016-07-09T09:31:19.275Z,22.44
2016-07-09T09:32:19.012Z,22.71
2016-07-09T09:33:19.276Z,22.66
2016-07-09T09:34:19.265Z,22.61
2016-07-09T09:35:19.276Z,22.67
2016-07-09T09:36:19.276Z,22.64
2016-07-09T09:37:19.325Z,22.78
2016-07-09T09:38:18.992Z,22.92
2016-07-09T09:39:19.131Z,23.06
2016-07-09T09:40:19.022Z,22.96
2016-07-09T09:41:19.206Z,22.73
2016-07-09T09:42:19.045Z,22.59
2016-07-09T09:43:19.244Z,22.45
2016-07-09T09:44:19.033Z,22.42
2016-07-09T09:45:19.282Z,22.31
2016-07-09T09:46:19.253Z,22.2
2016-07-09T09:47:19.298Z,22.2
2016-07-09T09:48:19.165Z,22.14
2016-07-09T09:49:20.922Z,22.04
2016-07-09T09:50:19.112Z,22.08
2016-07-09T09:51:19.128Z,22.07
2016-07-09T09:52:19.071Z,22.12
2016-07-09T09:53:19.450Z,22.08
2016-07-09T09:54:19.040Z,22.02
2016-07-09T09:55:19.622Z,21.93
2016-07-09T09:56:19.137Z,22.09
2016-07-09T09:57:19.083Z,22.12
2016-07-09T09:58:19.009Z,22.08
2016-07-09T09:59:19.163Z,22.09
2016-07-09T10:00:19.020Z,22.12
2016-07-09T10:01:19.217Z,22.05
2016-07-09T10:02:19.018Z,22.08
2016-07-09T10:03:19.740Z,22.12
2016-07-09T10:04:19.343Z,22.14
2016-07-09T10:05:19.238Z,22.12
2016-07-09T10:06:19.044Z,22.23
2016-07-09T10:07:19.312Z,22.18
2016-07-09T10:08:19.080Z,21.93
2016-07-09T10:09:19.229Z,21.97
2016-07-09T10:10:19.034Z,21.93
2016-07-09T10:11:19.038Z,21.93
2016-07-09T10:12:19.034Z,22.15
2016-07-09T10:13:19.159Z,22.29
2016-07-09T10:14:19.210Z,22.34
2016-07-09T10:15:19.303Z,22.49
2016-07-09T10:16:19.080Z,22.45
2016-07-09T10:17:19.328Z,22.27
2016-07-09T10:18:19.068Z,22.15
2016-07-09T10:19:19.296Z,22.12
2016-07-09T10:20:19.295Z,22.07
2016-07-09T10:21:19.323Z,21.96
2016-07-09T10:22:19.076Z,22.04
2016-07-09T10:23:19.057Z,22.04
2016-07-09T10:24:19.052Z,22
2016-07-09T10:25:19.089Z,22.07
2016-07-09T10:26:19.083Z,21.99
2016-07-09T10:27:19.091Z,22.08
2016-07-09T10:28:19.351Z,22.14
2016-07-09T10:29:19.066Z,22.22
2016-07-09T10:30:19.241Z,22.22
2016-07-09T10:31:19.071Z,22.22
2016-07-09T10:32:19.114Z,22.24
2016-07-09T10:33:19.112Z,22.16
2016-07-09T10:34:19.205Z,22.07
2016-07-09T10:35:19.180Z,22.02
2016-07-09T10:36:19.102Z,21.99
2016-07-09T10:37:19.110Z,21.83
2016-07-09T10:38:19.404Z,21.77
2016-07-09T10:39:19.107Z,21.8
2016-07-09T10:40:19.119Z,21.82
2016-07-09T10:41:19.093Z,21.9
2016-07-09T10:42:19.381Z,21.92
2016-07-09T10:43:19.134Z,21.78
2016-07-09T10:44:19.129Z,21.8
2016-07-09T10:45:19.099Z,21.78
2016-07-09T10:46:19.103Z,21.83
2016-07-09T10:47:19.374Z,21.97
2016-07-09T10:48:19.268Z,22.05
2016-07-09T10:49:19.383Z,22.24
2016-07-09T10:50:19.107Z,22.29
2016-07-09T10:51:19.323Z,22.38
2016-07-09T10:52:19.155Z,22.44
2016-07-09T10:53:19.119Z,22.44
2016-07-09T10:54:19.110Z,22.57
2016-07-09T10:55:19.318Z,22.63
2016-07-09T10:56:19.133Z,22.78
2016-07-09T10:57:19.332Z,22.78
2016-07-09T10:58:19.211Z,22.63
2016-07-09T10:59:19.211Z,22.64
2016-07-09T11:00:19.336Z,22.75
2016-07-09T11:01:19.446Z,22.85
2016-07-09T11:02:19.157Z,22.96
2016-07-09T11:03:19.165Z,23.03
2016-07-09T11:04:19.160Z,23.03
2016-07-09T11:05:19.458Z,23.1
2016-07-09T11:06:19.178Z,23.03
2016-07-09T11:07:19.454Z,23.03
2016-07-09T11:08:19.449Z,23.03
2016-07-09T11:09:19.196Z,23.19
2016-07-09T11:10:19.466Z,23.37
2016-07-09T11:11:19.482Z,23.56
2016-07-09T11:12:19.181Z,23.64
2016-07-09T11:13:19.166Z,23.67
2016-07-09T11:14:19.464Z,23.62
2016-07-09T11:15:19.184Z,23.6
2016-07-09T11:16:19.160Z,23.67
2016-07-09T11:17:19.196Z,23.75
2016-07-09T11:18:19.435Z,23.99
2016-07-09T11:19:19.181Z,24.26
2016-07-09T11:20:19.180Z,24.32
2016-07-09T11:21:19.220Z,24.34
2016-07-09T11:22:19.210Z,24.33
2016-07-09T11:23:19.211Z,24.27
2016-07-09T11:24:19.211Z,24.12
2016-07-09T11:25:19.224Z,24.02
2016-07-09T11:26:19.215Z,24
2016-07-09T11:27:19.221Z,24
2016-07-09T11:28:19.231Z,24.11
2016-07-09T11:29:19.407Z,23.97
2016-07-09T11:30:19.221Z,23.89
2016-07-09T11:31:19.515Z,23.77
2016-07-09T11:32:19.220Z,23.66
2016-07-09T11:33:19.203Z,23.64
2016-07-09T11:34:19.494Z,23.67
2016-07-09T11:35:19.211Z,23.62
2016-07-09T11:36:19.224Z,23.56
2016-07-09T11:37:19.228Z,23.52
2016-07-09T11:38:19.210Z,23.5
2016-07-09T11:39:19.341Z,23.42
2016-07-09T11:40:19.342Z,23.48
2016-07-09T11:41:19.522Z,23.47
2016-07-09T11:42:19.516Z,23.42
2016-07-09T11:43:19.233Z,23.41
2016-07-09T11:44:19.275Z,23.4
2016-07-09T11:45:19.574Z,23.4
2016-07-09T11:46:19.571Z,23.34
2016-07-09T11:47:19.281Z,23.42
2016-07-09T11:48:19.481Z,23.53
2016-07-09T11:49:19.561Z,23.62
2016-07-09T11:50:19.566Z,23.9
2016-07-09T11:51:19.513Z,24.17
2016-07-09T11:52:19.341Z,24.29
2016-07-09T11:53:19.567Z,24.44
2016-07-09T11:54:19.621Z,24.49
2016-07-09T11:55:19.384Z,24.33
2016-07-09T11:56:19.291Z,24.29
2016-07-09T11:57:19.535Z,24.08
2016-07-09T11:58:19.291Z,23.74
2016-07-09T11:59:19.525Z,23.55
2016-07-09T12:00:19.521Z,23.5
2016-07-09T12:01:19.520Z,23.45
2016-07-09T12:02:19.552Z,23.48
2016-07-09T12:03:19.530Z,23.62
2016-07-09T12:04:19.419Z,23.62
2016-07-09T12:05:19.563Z,23.5
2016-07-09T12:06:19.600Z,23.57
2016-07-09T12:07:19.526Z,23.66
2016-07-09T12:08:19.656Z,23.74
2016-07-09T12:09:19.623Z,23.72
2016-07-09T12:10:19.331Z,23.7
2016-07-09T12:11:19.460Z,23.55
2016-07-09T12:12:19.456Z,23.42
2016-07-09T12:13:19.342Z,23.35
2016-07-09T12:14:19.605Z,23.26
2016-07-09T12:15:19.384Z,23.25
2016-07-09T12:16:19.567Z,23.24
2016-07-09T12:17:19.368Z,23.16
2016-07-09T12:18:19.650Z,23.09
2016-07-09T12:19:19.585Z,23.15
2016-07-09T12:20:19.682Z,23.03
2016-07-09T12:21:19.481Z,22.91
2016-07-09T12:22:19.345Z,22.88
2016-07-09T12:23:19.335Z,22.85
2016-07-09T12:24:19.567Z,22.75
2016-07-09T12:25:19.585Z,22.7
2016-07-09T12:26:19.364Z,22.61
2016-07-09T12:27:19.556Z,22.48
2016-07-09T12:28:19.456Z,22.57
2016-07-09T12:29:19.397Z,22.42
2016-07-09T12:30:19.636Z,22.42
2016-07-09T12:31:19.409Z,22.36
2016-07-09T12:32:19.617Z,22.24
2016-07-09T12:33:19.402Z,22.22
2016-07-09T12:34:19.613Z,22.12
2016-07-09T12:35:19.393Z,22.05
2016-07-09T12:36:19.510Z,22.14
2016-07-09T12:37:19.396Z,21.9
2016-07-09T12:38:19.451Z,22.11
2016-07-09T12:39:19.409Z,22.12
2016-07-09T12:40:19.403Z,22.3
2016-07-09T12:41:19.525Z,22.36
2016-07-09T12:42:19.647Z,22.44
2016-07-09T12:43:19.430Z,22.44
2016-07-09T12:44:19.416Z,22.42
2016-07-09T12:45:19.708Z,22.39
2016-07-09T12:46:19.450Z,22.42
2016-07-09T12:47:19.641Z,22.44
2016-07-09T12:48:19.467Z,22.52
2016-07-09T12:49:19.445Z,22.66
2016-07-09T12:50:19.714Z,22.76
2016-07-09T12:51:19.445Z,22.84
2016-07-09T12:52:19.435Z,23.01
2016-07-09T12:53:19.453Z,23.1
2016-07-09T12:54:19.572Z,23.1
2016-07-09T12:55:19.453Z,23.21